createdAt,value
2018-09-23T00:02:01.174Z,27
2018-09-23T00:06:57.867Z,26.9
2018-09-23T00:11:54.505Z,26.9
2018-09-23T00:16:51.191Z,26.9
2018-09-23T00:21:47.861Z,26.9
2018-09-23T00:26:44.680Z,26.9
2018-09-23T00:31:41.416Z,26.8
2018-09-23T00:36:38.077Z,26.8
2018-09-23T00:41:34.808Z,26.8
2018-09-23T00:46:31.478Z,26.8
2018-09-23T00:51:28.206Z,26.8
2018-09-23T00:56:24.754Z,26.7
2018-09-23T01:01:21.545Z,26.7
2018-09-23T01:06:18.266Z,26.7
2018-09-23T01:11:14.961Z,26.7
2018-09-23T01:16:11.676Z,26.6
2018-09-23T01:21:08.419Z,26.6
2018-09-23T01:26:05.237Z,26.6
2018-09-23T01:31:01.663Z,26.5
2018-09-23T01:35:58.269Z,26.5
2018-09-23T01:40:54.899Z,26.4
2018-09-23T01:45:51.458Z,26.5
2018-09-23T01:50:48.061Z,26.5
2018-09-23T01:55:44.819Z,26.5
2018-09-23T02:00:41.512Z,26.4
2018-09-23T02:05:38.249Z,26.4
2018-09-23T02:10:35.036Z,26.4
2018-09-23T02:15:31.814Z,26.4
2018-09-23T02:20:28.541Z,26.3
2018-09-23T02:25:25.138Z,26.3
2018-09-23T02:30:21.925Z,26.3
2018-09-23T02:35:18.591Z,26.2
2018-09-23T02:40:15.378Z,26.2
2018-09-23T02:45:12.076Z,26.2
2018-09-23T02:50:08.805Z,26.2
2018-09-23T02:55:05.481Z,26.1
2018-09-23T03:00:02.137Z,26.1
2018-09-23T03:04:58.815Z,26.1
2018-09-23T03:09:55.431Z,26
2018-09-23T03:14:52.027Z,26
2018-09-23T03:19:48.949Z,25.5
2018-09-23T03:24:45.908Z,26
2018-09-23T03:29:42.763Z,25.9
2018-09-23T03:34:38.939Z,25.9
2018-09-23T03:39:35.517Z,25.8
2018-09-23T03:44:32.440Z,25.7
2018-09-23T03:49:29.095Z,25.6
2018-09-23T03:54:25.616Z,25.6
2018-09-23T03:59:22.393Z,25.5
2018-09-23T04:04:18.985Z,25.5
2018-09-23T05:04:01.811Z,24.9
2018-09-23T05:08:57.871Z,25.1
2018-09-23T05:13:54.574Z,25
2018-09-23T05:18:51.214Z,25
2018-09-23T05:23:47.797Z,25
2018-09-23T05:28:44.346Z,25
2018-09-23T05:33:41.110Z,25.1
2018-09-23T05:38:37.786Z,24.9
2018-09-23T05:43:35.551Z,25
2018-09-23T05:48:32.392Z,25
2018-09-23T05:53:29.173Z,25
2018-09-23T05:58:26.247Z,24.9
2018-09-23T06:03:23.064Z,24.9
2018-09-23T06:08:19.869Z,24.2
2018-09-23T06:13:16.429Z,24.4
2018-09-23T06:18:14.107Z,25
2018-09-23T06:23:11.513Z,24.5
2018-09-23T06:28:08.365Z,25.1
2018-09-23T06:33:07.040Z,24.6
2018-09-23T06:38:03.614Z,25.1
2018-09-23T06:43:00.892Z,24.7
2018-09-23T06:47:58.056Z,25.2
2018-09-23T06:52:54.951Z,24.8
2018-09-23T06:57:51.994Z,25.3
2018-09-23T07:02:49.343Z,25.3
2018-09-23T07:07:46.532Z,25.3
2018-09-23T07:12:43.475Z,24.8
2018-09-23T07:17:40.343Z,25.2
2018-09-23T07:22:37.189Z,25.1
2018-09-23T07:27:34.053Z,25.1
2018-09-23T07:32:31.004Z,24.6
2018-09-23T07:37:28.002Z,24.9
2018-09-23T07:42:25.354Z,24.5
2018-09-23T07:47:21.995Z,24.5
2018-09-23T07:52:20.215Z,24.5
2018-09-23T07:57:17.794Z,24.7
2018-09-23T08:02:13.785Z,24.4
2018-09-23T08:07:10.742Z,24.9
2018-09-23T08:12:07.623Z,24.6
2018-09-23T08:17:04.659Z,24.8
2018-09-23T08:22:01.817Z,24.8
2018-09-23T08:26:58.732Z,24.8
2018-09-23T08:31:55.928Z,24.8
2018-09-23T08:36:52.501Z,24.8
2018-09-23T08:41:49.548Z,24.8
2018-09-23T08:46:46.700Z,24.9
2018-09-23T08:51:43.680Z,24.9
2018-09-23T08:56:40.882Z,25
2018-09-23T09:01:38.095Z,24.5
2018-09-23T09:06:34.743Z,25
2018-09-23T09:11:31.749Z,25
2018-09-23T09:16:28.901Z,25
2018-09-23T09:21:26.385Z,25.1
2018-09-23T09:26:23.124Z,25.1
2018-09-23T09:31:20.100Z,25.2
2018-09-23T09:36:16.835Z,25.2
2018-09-23T09:41:13.777Z,24.8
2018-09-23T09:46:10.826Z,25.3
2018-09-23T09:51:07.783Z,24.9
2018-09-23T09:56:04.849Z,25.4
2018-09-23T10:01:02.293Z,25.5
2018-09-23T10:05:59.516Z,25.5
2018-09-23T10:10:57.778Z,25.6
2018-09-23T10:15:55.624Z,25.7
2018-09-23T10:20:53.722Z,25.7
2018-09-23T10:25:51.128Z,25.8
2018-09-23T10:30:48.105Z,25.4
2018-09-23T10:35:45.236Z,26
2018-09-23T10:40:42.315Z,25.6
2018-09-23T10:45:39.939Z,26.2
2018-09-23T10:50:37.335Z,26.3
2018-09-23T10:55:34.336Z,26.3
2018-09-23T11:00:31.196Z,26.3
2018-09-23T11:05:29.436Z,26.4
2018-09-23T11:10:27.516Z,26.4
2018-09-23T11:15:27.078Z,26.4
2018-09-23T11:20:25.993Z,26.4
2018-09-23T11:25:22.938Z,26.5
2018-09-23T11:30:19.904Z,26.5
2018-09-23T11:35:16.478Z,26.5
2018-09-23T11:40:12.702Z,26.5
2018-09-23T11:45:09.713Z,26.6
2018-09-23T11:50:10.668Z,26.6
2018-09-23T11:55:06.821Z,26.7
2018-09-23T12:00:03.884Z,26.8
2018-09-23T12:05:01.491Z,26.9
2018-09-23T12:09:58.678Z,26.9
2018-09-23T12:14:55.817Z,27
2018-09-23T12:19:52.832Z,27
2018-09-23T12:24:50.171Z,27.2
2018-09-23T12:29:47.724Z,27.1
2018-09-23T12:34:44.633Z,27.5
2018-09-23T12:39:41.644Z,27.6
2018-09-23T12:44:39.840Z,27.7
2018-09-23T12:49:37.526Z,27.8
2018-09-23T12:54:35.021Z,27.8
2018-09-23T12:59:31.944Z,27.9
2018-09-23T13:04:29.091Z,27.9
2018-09-23T13:09:25.981Z,27.9
2018-09-23T13:14:22.710Z,28
2018-09-23T13:19:19.823Z,28
2018-09-23T13:24:16.570Z,28
2018-09-23T13:29:13.367Z,28
2018-09-23T13:34:10.539Z,28
2018-09-23T13:39:07.693Z,28
2018-09-23T13:44:06.011Z,28
2018-09-23T13:49:03.147Z,28
2018-09-23T13:53:59.516Z,28
2018-09-23T13:58:56.492Z,28
2018-09-23T14:03:53.838Z,28.1
2018-09-23T14:08:50.936Z,28.1
2018-09-23T14:13:48.164Z,28.1
2018-09-23T14:18:45.256Z,28.1
2018-09-23T14:23:42.591Z,28.2
2018-09-23T14:28:39.557Z,27.9
2018-09-23T14:33:36.769Z,28.2
2018-09-23T14:38:33.632Z,28.2
2018-09-23T14:43:30.603Z,28.3
2018-09-23T14:48:27.519Z,28.4
2018-09-23T14:53:24.559Z,28.4
2018-09-23T14:58:21.590Z,28.5
2018-09-23T15:03:19.708Z,28.1
2018-09-23T15:08:16.944Z,27.9
2018-09-23T15:13:14.338Z,28.6
2018-09-23T15:18:11.237Z,28.6
2018-09-23T15:23:08.150Z,28.6
2018-09-23T15:28:05.218Z,28
2018-09-23T15:33:02.030Z,28.6
2018-09-23T15:37:59.186Z,28.6
2018-09-23T15:42:56.255Z,28.6
2018-09-23T15:47:53.217Z,28.6
2018-09-23T15:52:49.965Z,28.5
2018-09-23T15:57:47.012Z,28.5
2018-09-23T16:02:44.049Z,28.5
2018-09-23T16:07:41.051Z,28.5
2018-09-23T16:12:37.933Z,28.5
2018-09-23T16:17:34.932Z,28.5
2018-09-23T16:22:31.542Z,28.4
2018-09-23T16:27:28.317Z,28.4
2018-09-23T16:32:25.186Z,28.4
2018-09-23T16:37:22.052Z,28.3
2018-09-23T16:42:18.825Z,28.3
2018-09-23T16:47:15.960Z,27.7
2018-09-23T16:52:12.769Z,28.2
2018-09-23T16:57:09.651Z,28.2
2018-09-23T17:02:06.669Z,28.2
2018-09-23T17:07:03.434Z,28.1
2018-09-23T17:12:00.469Z,28.1
2018-09-23T17:16:57.319Z,28
2018-09-23T17:21:54.126Z,28
2018-09-23T17:26:50.898Z,28
2018-09-23T17:31:47.962Z,27.9
2018-09-23T17:36:44.900Z,27.9
2018-09-23T17:41:42.031Z,27.8
2018-09-23T17:46:39.090Z,27.8
2018-09-23T17:51:36.142Z,27.7
2018-09-23T17:56:33.028Z,27.2
2018-09-23T18:01:29.999Z,27.6
2018-09-23T18:06:27.302Z,27.6
2018-09-23T18:11:24.384Z,27.5
2018-09-23T18:16:21.319Z,27.5
2018-09-23T18:21:18.662Z,27.4
2018-09-23T18:26:15.742Z,27.4
2018-09-23T18:31:12.599Z,27.3
2018-09-23T18:36:09.481Z,27.3
2018-09-23T18:41:06.372Z,27.2
2018-09-23T18:46:03.571Z,27.2
2018-09-23T18:51:00.310Z,27.1
2018-09-23T18:55:56.947Z,27.1
2018-09-23T19:00:54.284Z,27
2018-09-23T19:05:51.119Z,27
2018-09-23T19:10:48.147Z,26.9
2018-09-23T19:15:45.225Z,26.8
2018-09-23T19:20:42.145Z,26.8
2018-09-23T19:25:39.028Z,26.7
2018-09-23T19:30:35.878Z,26.6
2018-09-23T19:35:32.783Z,26.6
2018-09-23T19:40:29.639Z,26.5
2018-09-23T19:45:26.669Z,26.5
2018-09-23T19:50:23.687Z,26.4
2018-09-23T19:55:20.510Z,26.4
2018-09-23T20:00:17.197Z,26.3
2018-09-23T20:05:14.425Z,26.3
2018-09-23T20:10:11.366Z,26.2
2018-09-23T20:15:08.405Z,26.1
2018-09-23T20:20:05.209Z,25.9
2018-09-23T20:25:02.059Z,26
2018-09-23T20:29:58.755Z,26
2018-09-23T20:34:55.611Z,25.9
2018-09-23T20:39:52.718Z,25.9
2018-09-23T20:44:49.516Z,25.8
2018-09-23T20:49:46.588Z,25.8
2018-09-23T20:54:43.521Z,25.7
2018-09-23T20:59:40.275Z,25.7
2018-09-23T21:04:37.055Z,25.6
2018-09-23T21:09:33.893Z,25.5
2018-09-23T21:14:30.799Z,24.9
2018-09-23T21:19:27.204Z,25.4
2018-09-23T21:24:23.854Z,25.4
2018-09-23T21:29:20.334Z,25.3
2018-09-23T21:34:16.386Z,25.3
2018-09-23T21:39:13.453Z,25.2
2018-09-23T21:44:09.956Z,24.7
2018-09-23T21:49:06.546Z,25.1
2018-09-23T21:54:03.421Z,24.5
2018-09-23T21:59:00.188Z,25
2018-09-23T22:03:57.044Z,24.4
2018-09-23T22:08:53.829Z,24.9
2018-09-23T22:13:50.602Z,24.3
2018-09-23T22:18:47.619Z,24.8
2018-09-23T22:23:44.487Z,24.7
2018-09-23T22:28:40.515Z,24.7
2018-09-23T22:33:37.444Z,24.6
2018-09-23T22:38:34.285Z,24.6
2018-09-23T22:43:31.006Z,24.5
2018-09-23T22:48:27.789Z,24.5
2018-09-23T22:53:24.655Z,24.4
2018-09-23T22:58:21.524Z,24.4
2018-09-23T23:03:17.664Z,23.8
2018-09-23T23:08:14.198Z,24.3
2018-09-23T23:13:10.991Z,23.7
2018-09-23T23:18:07.806Z,23.9
2018-09-23T23:23:04.684Z,23.6
2018-09-23T23:28:01.510Z,23.6
2018-09-23T23:32:58.421Z,23.5
2018-09-23T23:37:55.115Z,23.5
2018-09-23T23:42:52.098Z,23.4
2018-09-23T23:47:49.040Z,23.3
2018-09-23T23:52:45.952Z,23.3
2018-09-23T23:57:42.679Z,23.2
